Airfield :
LOGIN :

Register | Disclaimer

   EN    FR    IT 

 










Legend :    VFR   Marginal VFR   IFR   Intensive IFR   Very Intensive IFR
Visi :
Ceiling :
>= 8 km
>= 3000ft
5 to 8 km
1000 to 3000 ft
1500m to 5 km
500 to 1000 ft
800 to 1500m
200 to 500 ft
< 800m
< 200 ft
Symbols :   Thunderstorms  Fog  Heavy snow  Heavy precipitations  Wind > 20 kt
SIGMETs :     Misc.  Thunderstorms  Icing  Turbulence  Mountain Waves  Volcanic Ashes







- Airport Elevation : 256 ft
- IATA code : CFR
- Download approach charts


LFRK - Caen

CURRENT METAR :
  • 191630Z AUTO 20010KT 9999 FEW023 09/05 Q1021 NOSIG

EXPIRED METARs :
  • 191600Z AUTO 19008KT 150V220 9999 BKN025 BKN030 09/05 Q1021 NOSIG
  • 191530Z AUTO 18008KT 9999 FEW024 10/05 Q1021 NOSIG
  • 191500Z AUTO 19006KT 9999 FEW023 SCT030 10/06 Q1021 NOSIG
  • 191430Z AUTO 19007KT 160V240 9999 FEW022 10/05 Q1022 NOSIG
  • 191400Z AUTO 23009KT 9999 BKN018 BKN023 10/04 Q1022 NOSIG

TAF TAF LFRK
Valid from the 19 at 15:00 until the 20 at 00:00 UTC


191400Z 1915/1924 21008KT 9999 SCT025
PROB30
TEMPO 1921/1924 4000 BR
Met : +33 2 31 26 68 11
No reported NOTAMs for that airfield.



MET'MAP, your aeronautical weather chart ! - Copyright ORBIFLY December 2007 - Disclaimer

ORBIFLY MET'MAP TEAM :

Programming & Development : Alexandra Zaïnal
Concept & Development : Baudouin d'Aumeries
Co-Development & Prog : Marc-Olivier Méhu
Technical & hardware support : Manuel Goepfert

Contact : metmap@orbifly.com




SOURCES & CREDITS :

   NOAA